sensor_id;sensor_type;location;lat;lon;timestamp;pressure;altitude;pressure_sealevel;temperature;humidity
25130;BME280;13308;50.860;13.664;2023-04-24T04:33:13;95549.53;;;11.58;99.94
25130;BME280;13308;50.860;13.664;2023-04-24T04:35:40;95560.19;;;11.68;99.03
25130;BME280;13308;50.860;13.664;2023-04-24T04:38:06;95551.25;;;11.64;98.44
25130;BME280;13308;50.860;13.664;2023-04-24T04:40:47;95559.56;;;11.64;98.42
25130;BME280;13308;50.860;13.664;2023-04-24T04:43:14;95554.97;;;11.70;98.60
25130;BME280;13308;50.860;13.664;2023-04-24T04:45:46;95556.66;;;11.68;98.42
25130;BME280;13308;50.860;13.664;2023-04-24T04:48:45;95553.13;;;11.67;98.10
25130;BME280;13308;50.860;13.664;2023-04-24T04:51:10;95557.88;;;11.67;98.70
25130;BME280;13308;50.860;13.664;2023-04-24T04:53:36;95552.84;;;11.74;97.48
25130;BME280;13308;50.860;13.664;2023-04-24T04:56:02;95566.06;;;11.79;96.54
25130;BME280;13308;50.860;13.664;2023-04-24T04:58:34;95555.59;;;11.83;96.08
25130;BME280;13308;50.860;13.664;2023-04-24T05:01:01;95566.06;;;11.79;97.05
25130;BME280;13308;50.860;13.664;2023-04-24T05:03:32;95558.41;;;11.92;95.50
25130;BME280;13308;50.860;13.664;2023-04-24T05:06:05;95561.16;;;12.01;94.80
25130;BME280;13308;50.860;13.664;2023-04-24T05:08:33;95559.78;;;11.97;95.10
25130;BME280;13308;50.860;13.664;2023-04-24T05:10:59;95560.28;;;12.04;94.05
25130;BME280;13308;50.860;13.664;2023-04-24T05:13:26;95568.25;;;12.02;94.35
25130;BME280;13308;50.860;13.664;2023-04-24T05:15:52;95567.47;;;12.02;94.16
25130;BME280;13308;50.860;13.664;2023-04-24T05:18:17;95566.09;;;12.06;94.29
25130;BME280;13308;50.860;13.664;2023-04-24T05:20:43;95573.16;;;12.07;94.15
25130;BME280;13308;50.860;13.664;2023-04-24T05:23:09;95574.56;;;12.12;94.09
25130;BME280;13308;50.860;13.664;2023-04-24T05:25:37;95573.34;;;12.13;93.72
25130;BME280;13308;50.860;13.664;2023-04-24T05:28:07;95578.56;;;12.20;94.06
25130;BME280;13308;50.860;13.664;2023-04-24T05:30:32;95573.19;;;12.25;92.86
25130;BME280;13308;50.860;13.664;2023-04-24T05:32:58;95575.03;;;12.28;92.83
25130;BME280;13308;50.860;13.664;2023-04-24T05:35:23;95570.72;;;12.18;94.39
25130;BME280;13308;50.860;13.664;2023-04-24T05:37:49;95572.13;;;12.23;93.72
25130;BME280;13308;50.860;13.664;2023-04-24T05:40:18;95574.13;;;12.22;93.43
25130;BME280;13308;50.860;13.664;2023-04-24T05:42:43;95584.41;;;12.31;93.37
25130;BME280;13308;50.860;13.664;2023-04-24T05:45:09;95575.38;;;12.39;92.09
25130;BME280;13308;50.860;13.664;2023-04-24T05:47:39;95571.38;;;12.40;93.48
25130;BME280;13308;50.860;13.664;2023-04-24T05:50:05;95570.31;;;12.47;92.68
25130;BME280;13308;50.860;13.664;2023-04-24T05:52:31;95566.75;;;12.46;92.20
25130;BME280;13308;50.860;13.664;2023-04-24T05:54:56;95574.13;;;12.49;93.15
25130;BME280;13308;50.860;13.664;2023-04-24T05:57:24;95576.13;;;12.58;92.22
25130;BME280;13308;50.860;13.664;2023-04-24T05:59:58;95590.09;;;12.54;92.33
25130;BME280;13308;50.860;13.664;2023-04-24T06:02:24;95586.41;;;12.48;92.72
25130;BME280;13308;50.860;13.664;2023-04-24T06:04:50;95589.34;;;12.54;92.16
25130;BME280;13308;50.860;13.664;2023-04-24T06:07:16;95591.66;;;12.64;91.91
25130;BME280;13308;50.860;13.664;2023-04-24T06:09:43;95587.03;;;12.61;92.00
25130;BME280;13308;50.860;13.664;2023-04-24T06:12:08;95598.41;;;12.63;90.30
25130;BME280;13308;50.860;13.664;2023-04-24T06:14:48;95586.75;;;12.68;90.75
25130;BME280;13308;50.860;13.664;2023-04-24T06:17:20;95593.00;;;12.87;89.49
25130;BME280;13308;50.860;13.664;2023-04-24T06:19:47;95600.09;;;12.79;89.51
25130;BME280;13308;50.860;13.664;2023-04-24T06:22:12;95594.41;;;12.73;88.66
25130;BME280;13308;50.860;13.664;2023-04-24T06:24:39;95590.56;;;12.80;90.27
25130;BME280;13308;50.860;13.664;2023-04-24T06:27:05;95596.41;;;13.00;88.20
25130;BME280;13308;50.860;13.664;2023-04-24T06:29:30;95595.03;;;13.04;88.08
25130;BME280;13308;50.860;13.664;2023-04-24T06:31:55;95597.47;;;13.02;87.74
25130;BME280;13308;50.860;13.664;2023-04-24T06:34:21;95597.81;;;13.04;87.56
25130;BME280;13308;50.860;13.664;2023-04-24T06:36:46;95598.88;;;12.98;88.15
25130;BME280;13308;50.860;13.664;2023-04-24T06:39:12;95592.25;;;13.04;87.87
25130;BME280;13308;50.860;13.664;2023-04-24T06:41:37;95609.47;;;13.08;88.74
25130;BME280;13308;50.860;13.664;2023-04-24T06:44:03;95600.25;;;13.11;86.58
25130;BME280;13308;50.860;13.664;2023-04-24T06:46:28;95603.47;;;13.19;86.52
25130;BME280;13308;50.860;13.664;2023-04-24T06:48:54;95604.84;;;13.23;86.20
25130;BME280;13308;50.860;13.664;2023-04-24T06:51:26;95603.13;;;13.26;86.58
25130;BME280;13308;50.860;13.664;2023-04-24T06:53:53;95602.22;;;13.20;86.42
25130;BME280;13308;50.860;13.664;2023-04-24T06:56:18;95606.69;;;13.17;86.71
25130;BME280;13308;50.860;13.664;2023-04-24T06:58:44;95605.59;;;13.24;86.37
25130;BME280;13308;50.860;13.664;2023-04-24T07:01:10;95602.81;;;13.33;87.64
25130;BME280;13308;50.860;13.664;2023-04-24T07:03:36;95599.13;;;13.27;87.63
25130;BME280;13308;50.860;13.664;2023-04-24T07:06:01;95601.59;;;13.25;86.28
25130;BME280;13308;50.860;13.664;2023-04-24T07:08:28;95616.19;;;13.34;85.55
25130;BME280;13308;50.860;13.664;2023-04-24T07:10:55;95608.69;;;13.26;85.55
25130;BME280;13308;50.860;13.664;2023-04-24T07:13:21;95624.63;;;13.40;86.18
25130;BME280;13308;50.860;13.664;2023-04-24T07:15:46;95620.78;;;13.46;85.38
25130;BME280;13308;50.860;13.664;2023-04-24T07:18:14;95627.97;;;13.53;85.44
25130;BME280;13308;50.860;13.664;2023-04-24T07:20:39;95630.56;;;13.65;85.48
25130;BME280;13308;50.860;13.664;2023-04-24T07:23:04;95613.25;;;13.79;85.67
25130;BME280;13308;50.860;13.664;2023-04-24T07:25:30;95621.16;;;14.04;86.40
25130;BME280;13308;50.860;13.664;2023-04-24T07:27:56;95632.97;;;13.81;82.98
25130;BME280;13308;50.860;13.664;2023-04-24T07:30:22;95631.47;;;14.04;81.97
25130;BME280;13308;50.860;13.664;2023-04-24T07:32:47;95627.94;;;14.03;80.62
25130;BME280;13308;50.860;13.664;2023-04-24T07:35:12;95634.19;;;14.22;80.73
25130;BME280;13308;50.860;13.664;2023-04-24T07:37:37;95640.81;;;14.24;79.42
25130;BME280;13308;50.860;13.664;2023-04-24T07:40:03;95636.16;;;14.30;79.76
25130;BME280;13308;50.860;13.664;2023-04-24T07:42:28;95634.00;;;14.49;79.02
25130;BME280;13308;50.860;13.664;2023-04-24T07:44:55;95645.59;;;14.47;79.11
25130;BME280;13308;50.860;13.664;2023-04-24T07:47:20;95644.72;;;14.41;78.73
25130;BME280;13308;50.860;13.664;2023-04-24T07:49:46;95637.75;;;14.46;78.75
25130;BME280;13308;50.860;13.664;2023-04-24T07:52:11;95651.97;;;14.62;77.32
25130;BME280;13308;50.860;13.664;2023-04-24T07:54:36;95650.16;;;14.59;78.91
25130;BME280;13308;50.860;13.664;2023-04-24T07:57:02;95652.97;;;14.50;77.34
25130;BME280;13308;50.860;13.664;2023-04-24T07:59:27;95648.31;;;14.33;79.16
25130;BME280;13308;50.860;13.664;2023-04-24T08:01:53;95641.88;;;14.27;79.23
25130;BME280;13308;50.860;13.664;2023-04-24T08:04:19;95646.72;;;14.41;79.40
25130;BME280;13308;50.860;13.664;2023-04-24T08:06:44;95638.53;;;14.46;78.94
25130;BME280;13308;50.860;13.664;2023-04-24T08:09:10;95641.22;;;14.55;78.34
25130;BME280;13308;50.860;13.664;2023-04-24T08:11:35;95641.41;;;14.52;78.48
25130;BME280;13308;50.860;13.664;2023-04-24T08:14:00;95638.38;;;14.88;77.71
25130;BME280;13308;50.860;13.664;2023-04-24T08:16:26;95650.53;;;14.90;77.43
25130;BME280;13308;50.860;13.664;2023-04-24T08:18:52;95650.53;;;14.67;73.43
25130;BME280;13308;50.860;13.664;2023-04-24T08:21:18;95656.88;;;14.67;74.55
25130;BME280;13308;50.860;13.664;2023-04-24T08:23:44;95654.25;;;14.87;74.87
25130;BME280;13308;50.860;13.664;2023-04-24T08:26:10;95649.94;;;14.86;75.80
25130;BME280;13308;50.860;13.664;2023-04-24T08:28:36;95648.03;;;14.92;74.66
25130;BME280;13308;50.860;13.664;2023-04-24T08:31:02;95654.56;;;14.66;74.52
25130;BME280;13308;50.860;13.664;2023-04-24T08:33:27;95648.59;;;14.82;75.66
25130;BME280;13308;50.860;13.664;2023-04-24T08:35:57;95654.25;;;14.87;74.41
25130;BME280;13308;50.860;13.664;2023-04-24T08:38:23;95652.31;;;14.55;75.92
25130;BME280;13308;50.860;13.664;2023-04-24T08:40:48;95665.41;;;14.31;75.92
25130;BME280;13308;50.860;13.664;2023-04-24T08:43:15;95660.09;;;14.10;76.89
25130;BME280;13308;50.860;13.664;2023-04-24T08:45:41;95662.81;;;13.86;77.41
25130;BME280;13308;50.860;13.664;2023-04-24T08:48:07;95664.84;;;13.77;78.19
25130;BME280;13308;50.860;13.664;2023-04-24T08:50:32;95674.84;;;13.83;80.79
25130;BME280;13308;50.860;13.664;2023-04-24T08:52:58;95666.53;;;13.83;78.80
25130;BME280;13308;50.860;13.664;2023-04-24T08:55:24;95670.72;;;13.79;78.33
25130;BME280;13308;50.860;13.664;2023-04-24T08:57:51;95671.03;;;14.04;78.13
25130;BME280;13308;50.860;13.664;2023-04-24T09:00:21;95668.16;;;14.40;77.81
25130;BME280;13308;50.860;13.664;2023-04-24T09:02:49;95675.00;;;14.77;77.62
25130;BME280;13308;50.860;13.664;2023-04-24T09:05:16;95668.22;;;14.78;75.75
25130;BME280;13308;50.860;13.664;2023-04-24T09:07:45;95666.78;;;14.83;75.31
25130;BME280;13308;50.860;13.664;2023-04-24T09:10:11;95663.59;;;14.75;73.35
25130;BME280;13308;50.860;13.664;2023-04-24T09:12:37;95664.75;;;15.07;73.45
25130;BME280;13308;50.860;13.664;2023-04-24T09:15:03;95666.69;;;15.30;71.25
25130;BME280;13308;50.860;13.664;2023-04-24T09:17:30;95667.41;;;15.01;70.39
25130;BME280;13308;50.860;13.664;2023-04-24T09:19:56;95662.28;;;15.23;67.81
25130;BME280;13308;50.860;13.664;2023-04-24T09:22:21;95666.06;;;15.11;70.58
25130;BME280;13308;50.860;13.664;2023-04-24T09:24:47;95660.94;;;15.19;70.29
25130;BME280;13308;50.860;13.664;2023-04-24T09:27:12;95660.44;;;15.06;68.02
25130;BME280;13308;50.860;13.664;2023-04-24T09:29:38;95664.38;;;15.28;69.54
25130;BME280;13308;50.860;13.664;2023-04-24T09:32:18;95661.00;;;14.95;66.93
25130;BME280;13308;50.860;13.664;2023-04-24T09:34:47;95660.91;;;15.04;67.08
25130;BME280;13308;50.860;13.664;2023-04-24T09:37:28;95652.09;;;15.06;67.17
25130;BME280;13308;50.860;13.664;2023-04-24T09:40:15;95659.00;;;15.10;68.80
25130;BME280;13308;50.860;13.664;2023-04-24T09:42:52;95669.53;;;15.06;70.08
25130;BME280;13308;50.860;13.664;2023-04-24T09:45:18;95657.84;;;15.02;70.54
25130;BME280;13308;50.860;13.664;2023-04-24T09:47:43;95654.38;;;14.93;66.69
25130;BME280;13308;50.860;13.664;2023-04-24T09:50:16;95675.56;;;14.81;66.86
25130;BME280;13308;50.860;13.664;2023-04-24T09:53:04;95650.88;;;15.21;66.70
25130;BME280;13308;50.860;13.664;2023-04-24T09:55:48;95656.34;;;15.16;67.21
25130;BME280;13308;50.860;13.664;2023-04-24T09:58:15;95659.66;;;15.05;66.88
25130;BME280;13308;50.860;13.664;2023-04-24T10:00:40;95647.75;;;14.90;67.55
25130;BME280;13308;50.860;13.664;2023-04-24T10:03:06;95658.25;;;15.10;68.64
25130;BME280;13308;50.860;13.664;2023-04-24T10:05:33;95652.19;;;15.11;69.73
25130;BME280;13308;50.860;13.664;2023-04-24T10:08:06;95654.09;;;15.43;65.93
25130;BME280;13308;50.860;13.664;2023-04-24T10:10:34;95650.47;;;15.37;67.64
25130;BME280;13308;50.860;13.664;2023-04-24T10:13:00;95652.38;;;15.60;68.13
25130;BME280;13308;50.860;13.664;2023-04-24T10:15:26;95646.06;;;15.60;66.61
25130;BME280;13308;50.860;13.664;2023-04-24T10:17:51;95653.91;;;15.47;63.50
25130;BME280;13308;50.860;13.664;2023-04-24T10:20:24;95648.94;;;15.36;65.41
25130;BME280;13308;50.860;13.664;2023-04-24T10:22:52;95639.69;;;15.30;66.30
25130;BME280;13308;50.860;13.664;2023-04-24T10:25:27;95644.72;;;15.55;66.38
25130;BME280;13308;50.860;13.664;2023-04-24T10:27:53;95646.03;;;15.45;65.06
25130;BME280;13308;50.860;13.664;2023-04-24T10:30:23;95641.84;;;15.35;65.59
25130;BME280;13308;50.860;13.664;2023-04-24T10:32:48;95649.53;;;15.17;66.20
25130;BME280;13308;50.860;13.664;2023-04-24T10:35:15;95650.50;;;15.28;68.32
25130;BME280;13308;50.860;13.664;2023-04-24T10:37:48;95638.75;;;15.33;65.93
25130;BME280;13308;50.860;13.664;2023-04-24T10:40:18;95641.97;;;15.32;66.87
25130;BME280;13308;50.860;13.664;2023-04-24T10:42:47;95651.81;;;15.56;65.39
25130;BME280;13308;50.860;13.664;2023-04-24T10:45:18;95646.25;;;15.42;66.03
25130;BME280;13308;50.860;13.664;2023-04-24T10:47:51;95652.97;;;15.35;67.99
25130;BME280;13308;50.860;13.664;2023-04-24T10:50:17;95650.00;;;15.15;67.17
25130;BME280;13308;50.860;13.664;2023-04-24T10:52:49;95651.31;;;15.05;69.78
25130;BME280;13308;50.860;13.664;2023-04-24T10:55:42;95661.41;;;14.79;68.43
25130;BME280;13308;50.860;13.664;2023-04-24T10:58:09;95659.13;;;14.54;70.21
25130;BME280;13308;50.860;13.664;2023-04-24T11:00:36;95659.09;;;14.31;71.97
25130;BME280;13308;50.860;13.664;2023-04-24T11:03:05;95660.56;;;14.08;73.44
25130;BME280;13308;50.860;13.664;2023-04-24T11:05:50;95664.94;;;13.91;73.96
25130;BME280;13308;50.860;13.664;2023-04-24T11:08:22;95672.88;;;13.75;76.50
25130;BME280;13308;50.860;13.664;2023-04-24T11:11:15;95682.88;;;13.81;76.35
25130;BME280;13308;50.860;13.664;2023-04-24T11:18:52;95675.31;;;14.23;78.66
25130;BME280;13308;50.860;13.664;2023-04-24T11:21:24;95670.56;;;14.71;77.89
25130;BME280;13308;50.860;13.664;2023-04-24T11:23:50;95676.16;;;14.85;77.18
25130;BME280;13308;50.860;13.664;2023-04-24T11:26:21;95665.75;;;14.95;78.00
25130;BME280;13308;50.860;13.664;2023-04-24T11:28:50;95672.47;;;14.88;76.15
25130;BME280;13308;50.860;13.664;2023-04-24T11:31:38;95674.34;;;14.82;76.81
25130;BME280;13308;50.860;13.664;2023-04-24T11:34:12;95680.44;;;14.48;75.08
25130;BME280;13308;50.860;13.664;2023-04-24T11:36:39;95682.06;;;14.31;77.81
25130;BME280;13308;50.860;13.664;2023-04-24T11:39:05;95675.91;;;14.27;77.16
25130;BME280;13308;50.860;13.664;2023-04-24T11:41:31;95679.97;;;14.08;77.33
25130;BME280;13308;50.860;13.664;2023-04-24T11:43:57;95680.94;;;13.96;75.07
25130;BME280;13308;50.860;13.664;2023-04-24T11:46:22;95671.97;;;14.10;75.43
25130;BME280;13308;50.860;13.664;2023-04-24T11:48:48;95677.34;;;14.14;74.29
25130;BME280;13308;50.860;13.664;2023-04-24T11:51:14;95676.72;;;14.19;73.95
25130;BME280;13308;50.860;13.664;2023-04-24T11:53:39;95673.91;;;14.51;72.61
25130;BME280;13308;50.860;13.664;2023-04-24T11:56:05;95676.41;;;14.96;72.67
25130;BME280;13308;50.860;13.664;2023-04-24T11:58:38;95673.47;;;15.67;67.71
25130;BME280;13308;50.860;13.664;2023-04-24T12:01:04;95662.59;;;16.12;67.04
25130;BME280;13308;50.860;13.664;2023-04-24T12:03:30;95678.72;;;16.57;62.70
25130;BME280;13308;50.860;13.664;2023-04-24T12:06:06;95666.44;;;16.84;61.71
25130;BME280;13308;50.860;13.664;2023-04-24T12:08:32;95674.00;;;16.63;60.37
25130;BME280;13308;50.860;13.664;2023-04-24T12:11:00;95680.78;;;16.42;55.58
25130;BME280;13308;50.860;13.664;2023-04-24T12:13:26;95681.84;;;16.30;55.39
25130;BME280;13308;50.860;13.664;2023-04-24T12:15:51;95685.09;;;15.65;56.41
25130;BME280;13308;50.860;13.664;2023-04-24T12:18:16;95695.50;;;15.41;56.36
25130;BME280;13308;50.860;13.664;2023-04-24T12:20:42;95703.94;;;15.23;54.21
25130;BME280;13308;50.860;13.664;2023-04-24T12:23:07;95693.53;;;14.71;56.70
25130;BME280;13308;50.860;13.664;2023-04-24T12:25:33;95698.50;;;14.91;57.27
25130;BME280;13308;50.860;13.664;2023-04-24T12:30:35;95694.31;;;15.33;56.80
25130;BME280;13308;50.860;13.664;2023-04-24T12:33:03;95692.91;;;15.52;57.27
25130;BME280;13308;50.860;13.664;2023-04-24T12:35:30;95693.22;;;15.69;56.35
25130;BME280;13308;50.860;13.664;2023-04-24T12:38:08;95693.97;;;15.69;56.26
25130;BME280;13308;50.860;13.664;2023-04-24T12:40:33;95691.47;;;16.00;55.84
25130;BME280;13308;50.860;13.664;2023-04-24T12:42:59;95697.22;;;15.82;55.19
25130;BME280;13308;50.860;13.664;2023-04-24T12:45:24;95700.44;;;16.53;54.34
25130;BME280;13308;50.860;13.664;2023-04-24T12:47:50;95691.53;;;17.49;53.99
25130;BME280;13308;50.860;13.664;2023-04-24T12:50:16;95698.19;;;17.32;53.61
25130;BME280;13308;50.860;13.664;2023-04-24T12:52:42;95701.44;;;17.30;53.70
25130;BME280;13308;50.860;13.664;2023-04-24T12:55:09;95693.59;;;17.29;53.14
25130;BME280;13308;50.860;13.664;2023-04-24T12:57:36;95694.63;;;17.51;51.92
25130;BME280;13308;50.860;13.664;2023-04-24T13:00:03;95692.66;;;18.39;51.17
25130;BME280;13308;50.860;13.664;2023-04-24T13:02:30;95694.72;;;18.81;49.92
25130;BME280;13308;50.860;13.664;2023-04-24T13:04:56;95694.03;;;19.49;47.87
25130;BME280;13308;50.860;13.664;2023-04-24T13:07:22;95683.50;;;19.23;48.40
25130;BME280;13308;50.860;13.664;2023-04-24T13:09:48;95694.16;;;18.77;46.53
25130;BME280;13308;50.860;13.664;2023-04-24T13:12:14;95693.94;;;19.22;47.81
25130;BME280;13308;50.860;13.664;2023-04-24T13:14:40;95694.31;;;18.57;48.59
25130;BME280;13308;50.860;13.664;2023-04-24T13:17:05;95700.31;;;17.88;48.32
25130;BME280;13308;50.860;13.664;2023-04-24T13:19:38;95693.72;;;18.47;47.23
25130;BME280;13308;50.860;13.664;2023-04-24T13:22:04;95687.94;;;18.25;46.03
25130;BME280;13308;50.860;13.664;2023-04-24T13:24:30;95699.88;;;18.93;47.96
25130;BME280;13308;50.860;13.664;2023-04-24T13:26:56;95700.72;;;18.68;46.02
25130;BME280;13308;50.860;13.664;2023-04-24T13:29:22;95699.56;;;17.87;46.69
25130;BME280;13308;50.860;13.664;2023-04-24T13:31:49;95694.44;;;16.60;48.29
25130;BME280;13308;50.860;13.664;2023-04-24T13:34:14;95708.72;;;16.33;49.46
25130;BME280;13308;50.860;13.664;2023-04-24T13:36:40;95698.34;;;16.34;50.21
25130;BME280;13308;50.860;13.664;2023-04-24T13:39:05;95702.13;;;16.65;50.64
25130;BME280;13308;50.860;13.664;2023-04-24T13:41:32;95696.16;;;17.52;47.47
25130;BME280;13308;50.860;13.664;2023-04-24T13:43:58;95711.63;;;17.33;47.97
25130;BME280;13308;50.860;13.664;2023-04-24T13:46:23;95694.59;;;16.51;49.48
25130;BME280;13308;50.860;13.664;2023-04-24T13:48:48;95707.09;;;16.96;49.08
25130;BME280;13308;50.860;13.664;2023-04-24T13:51:14;95700.41;;;18.30;46.92
25130;BME280;13308;50.860;13.664;2023-04-24T13:53:39;95693.00;;;19.47;44.33
25130;BME280;13308;50.860;13.664;2023-04-24T13:56:05;95702.44;;;19.55;43.55
25130;BME280;13308;50.860;13.664;2023-04-24T13:58:31;95696.84;;;19.02;45.46
25130;BME280;13308;50.860;13.664;2023-04-24T14:00:57;95697.72;;;20.71;44.00
25130;BME280;13308;50.860;13.664;2023-04-24T14:03:22;95717.59;;;21.63;38.93
25130;BME280;13308;50.860;13.664;2023-04-24T14:05:48;95698.72;;;20.90;40.12
25130;BME280;13308;50.860;13.664;2023-04-24T14:08:13;95704.28;;;19.16;42.11
25130;BME280;13308;50.860;13.664;2023-04-24T14:10:38;95699.72;;;18.35;43.18
25130;BME280;13308;50.860;13.664;2023-04-24T14:13:04;95707.47;;;19.40;41.96
25130;BME280;13308;50.860;13.664;2023-04-24T14:15:29;95693.25;;;18.96;43.16
25130;BME280;13308;50.860;13.664;2023-04-24T14:17:54;95692.56;;;19.76;41.91
25130;BME280;13308;50.860;13.664;2023-04-24T14:20:20;95679.91;;;20.52;41.75
25130;BME280;13308;50.860;13.664;2023-04-24T14:22:45;95689.53;;;20.84;41.33
25130;BME280;13308;50.860;13.664;2023-04-24T14:25:11;95689.53;;;19.96;42.65
25130;BME280;13308;50.860;13.664;2023-04-24T14:27:36;95689.09;;;20.08;43.54
25130;BME280;13308;50.860;13.664;2023-04-24T14:30:01;95698.19;;;19.98;42.25
25130;BME280;13308;50.860;13.664;2023-04-24T14:32:27;95680.69;;;20.47;42.62
25130;BME280;13308;50.860;13.664;2023-04-24T14:34:53;95676.63;;;20.20;42.25
25130;BME280;13308;50.860;13.664;2023-04-24T14:37:18;95683.16;;;19.09;42.90
25130;BME280;13308;50.860;13.664;2023-04-24T14:39:45;95675.25;;;18.24;45.09
25130;BME280;13308;50.860;13.664;2023-04-24T14:42:10;95670.38;;;18.92;44.09
25130;BME280;13308;50.860;13.664;2023-04-24T14:44:36;95686.97;;;19.76;44.49
25130;BME280;13308;50.860;13.664;2023-04-24T14:47:01;95696.09;;;19.60;43.02
25130;BME280;13308;50.860;13.664;2023-04-24T14:49:26;95682.56;;;18.47;44.90
25130;BME280;13308;50.860;13.664;2023-04-24T14:51:51;95702.53;;;18.71;44.90
25130;BME280;13308;50.860;13.664;2023-04-24T14:54:17;95702.97;;;19.06;44.61
25130;BME280;13308;50.860;13.664;2023-04-24T14:56:42;95708.03;;;19.02;42.35
25130;BME280;13308;50.860;13.664;2023-04-24T14:59:10;95703.47;;;18.63;43.29
25130;BME280;13308;50.860;13.664;2023-04-24T15:01:35;95698.06;;;18.54;43.19
25130;BME280;13308;50.860;13.664;2023-04-24T15:04:01;95699.03;;;18.14;44.02
25130;BME280;13308;50.860;13.664;2023-04-24T15:06:26;95702.34;;;18.18;44.49
25130;BME280;13308;50.860;13.664;2023-04-24T15:08:51;95702.69;;;18.26;44.37
25130;BME280;13308;50.860;13.664;2023-04-24T15:11:17;95711.97;;;17.86;44.76
25130;BME280;13308;50.860;13.664;2023-04-24T15:13:43;95710.78;;;16.67;46.74
25130;BME280;13308;50.860;13.664;2023-04-24T15:16:10;95713.91;;;16.40;47.88
25130;BME280;13308;50.860;13.664;2023-04-24T15:18:35;95705.81;;;16.42;47.83
25130;BME280;13308;50.860;13.664;2023-04-24T15:21:01;95706.13;;;16.44;47.73
25130;BME280;13308;50.860;13.664;2023-04-24T15:23:26;95704.06;;;15.29;49.10
25130;BME280;13308;50.860;13.664;2023-04-24T15:25:51;95696.06;;;14.84;51.29
25130;BME280;13308;50.860;13.664;2023-04-24T15:28:17;95702.63;;;14.95;51.12
25130;BME280;13308;50.860;13.664;2023-04-24T15:30:43;95702.69;;;15.10;51.11
25130;BME280;13308;50.860;13.664;2023-04-24T15:33:08;95702.41;;;15.22;51.53
25130;BME280;13308;50.860;13.664;2023-04-24T15:35:33;95708.06;;;15.13;51.88
25130;BME280;13308;50.860;13.664;2023-04-24T15:37:59;95717.63;;;15.12;52.16
25130;BME280;13308;50.860;13.664;2023-04-24T15:40:25;95714.38;;;14.90;53.81
25130;BME280;13308;50.860;13.664;2023-04-24T15:42:50;95711.84;;;14.54;53.05
25130;BME280;13308;50.860;13.664;2023-04-24T15:45:15;95719.97;;;14.34;53.61
25130;BME280;13308;50.860;13.664;2023-04-24T15:47:41;95716.88;;;14.32;54.43
25130;BME280;13308;50.860;13.664;2023-04-24T15:50:07;95716.34;;;14.01;55.69
25130;BME280;13308;50.860;13.664;2023-04-24T15:52:35;95718.47;;;13.56;57.39
25130;BME280;13308;50.860;13.664;2023-04-24T15:55:02;95722.78;;;13.57;57.65
25130;BME280;13308;50.860;13.664;2023-04-24T15:57:28;95727.41;;;13.60;57.36
25130;BME280;13308;50.860;13.664;2023-04-24T15:59:53;95727.56;;;13.47;58.08
25130;BME280;13308;50.860;13.664;2023-04-24T16:02:18;95726.34;;;13.39;58.23
25130;BME280;13308;50.860;13.664;2023-04-24T16:04:49;95718.97;;;13.45;58.60
25130;BME280;13308;50.860;13.664;2023-04-24T16:07:15;95719.56;;;13.49;58.91
25130;BME280;13308;50.860;13.664;2023-04-24T16:09:42;95717.56;;;13.50;58.53
25130;BME280;13308;50.860;13.664;2023-04-24T16:12:08;95716.16;;;13.54;58.34
25130;BME280;13308;50.860;13.664;2023-04-24T16:14:37;95721.06;;;13.68;59.24
25130;BME280;13308;50.860;13.664;2023-04-24T16:17:03;95709.06;;;13.62;59.02
25130;BME280;13308;50.860;13.664;2023-04-24T16:19:29;95716.41;;;13.74;59.23
25130;BME280;13308;50.860;13.664;2023-04-24T16:21:55;95722.03;;;13.47;60.03
25130;BME280;13308;50.860;13.664;2023-04-24T16:24:22;95727.72;;;13.35;61.01
25130;BME280;13308;50.860;13.664;2023-04-24T16:26:48;95736.22;;;13.22;59.69
25130;BME280;13308;50.860;13.664;2023-04-24T16:29:14;95731.13;;;13.21;59.70
25130;BME280;13308;50.860;13.664;2023-04-24T16:31:40;95734.50;;;13.25;59.88
25130;BME280;13308;50.860;13.664;2023-04-24T16:34:06;95742.34;;;13.17;59.92
25130;BME280;13308;50.860;13.664;2023-04-24T16:36:31;95738.66;;;13.20;60.36
25130;BME280;13308;50.860;13.664;2023-04-24T16:38:57;95736.97;;;13.23;60.23
25130;BME280;13308;50.860;13.664;2023-04-24T16:41:22;95744.81;;;13.15;60.32
25130;BME280;13308;50.860;13.664;2023-04-24T16:43:47;95738.66;;;13.11;60.13
25130;BME280;13308;50.860;13.664;2023-04-24T16:46:13;95741.25;;;12.97;59.30
25130;BME280;13308;50.860;13.664;2023-04-24T16:48:38;95749.38;;;12.91;60.41
25130;BME280;13308;50.860;13.664;2023-04-24T16:51:03;95746.88;;;12.75;60.77
25130;BME280;13308;50.860;13.664;2023-04-24T16:53:29;95750.41;;;12.76;62.04
25130;BME280;13308;50.860;13.664;2023-04-24T16:55:54;95752.28;;;12.79;60.43
25130;BME280;13308;50.860;13.664;2023-04-24T16:58:19;95758.09;;;12.72;61.40
25130;BME280;13308;50.860;13.664;2023-04-24T17:00:45;95762.06;;;12.62;62.11
25130;BME280;13308;50.860;13.664;2023-04-24T17:03:12;95762.50;;;12.60;62.85
25130;BME280;13308;50.860;13.664;2023-04-24T17:05:37;95761.75;;;12.60;62.81
25130;BME280;13308;50.860;13.664;2023-04-24T17:08:03;95769.59;;;12.61;61.30
25130;BME280;13308;50.860;13.664;2023-04-24T17:10:28;95779.34;;;12.35;62.02
25130;BME280;13308;50.860;13.664;2023-04-24T17:12:54;95772.63;;;12.45;62.32
25130;BME280;13308;50.860;13.664;2023-04-24T17:15:19;95774.72;;;12.32;63.03
25130;BME280;13308;50.860;13.664;2023-04-24T17:17:45;95777.44;;;12.23;64.05
25130;BME280;13308;50.860;13.664;2023-04-24T17:20:11;95771.41;;;12.16;65.07
25130;BME280;13308;50.860;13.664;2023-04-24T17:22:36;95778.91;;;12.06;66.09
25130;BME280;13308;50.860;13.664;2023-04-24T17:25:02;95780.09;;;11.96;67.18
25130;BME280;13308;50.860;13.664;2023-04-24T17:27:27;95777.00;;;11.94;67.43
25130;BME280;13308;50.860;13.664;2023-04-24T17:29:53;95780.84;;;11.97;67.68